Time;durP1;ratioP1;P1;durP2;ratioP2;P2;SDS_P1;SDS_P2;PMS_P1;PMS_P2;Temp;Humidity;BMP_temperature;BMP_pressure;BME280_temperature;BME280_humidity;BME280_pressure;Samples;Min_cycle;Max_cycle;Signal;HPM_P1;HPM_P2
2021/01/01 00:00:34;;;;;;;1999.90;999.90;;;;;;;-0.78;100.00;101153.95;1760849;80;21009;-66
2021/01/01 00:03:02;;;;;;;1999.90;999.90;;;;;;;-0.77;100.00;101155.61;1759944;80;21533;-66
2021/01/01 00:05:30;;;;;;;1999.90;999.90;;;;;;;-0.74;100.00;101157.89;1763829;80;20985;-66
2021/01/01 00:07:58;;;;;;;1999.90;999.90;;;;;;;-0.70;100.00;101152.32;1767677;79;22347;-69
2021/01/01 00:10:26;;;;;;;1999.90;999.90;;;;;;;-0.66;100.00;101157.62;1766587;79;20973;-69
2021/01/01 00:12:54;;;;;;;1999.90;999.90;;;;;;;-0.65;100.00;101158.77;1767700;79;21131;-67
2021/01/01 00:15:22;;;;;;;1999.90;999.90;;;;;;;-0.62;100.00;101160.21;1764318;79;21100;-62
2021/01/01 00:17:50;;;;;;;1999.90;999.90;;;;;;;-0.60;100.00;101155.38;1771833;79;20996;-64
2021/01/01 00:20:18;;;;;;;1999.90;999.90;;;;;;;-0.56;100.00;101150.34;1766543;79;21388;-67
2021/01/01 00:22:47;;;;;;;1999.90;999.90;;;;;;;-0.53;100.00;101144.46;1768764;79;21111;-67
2021/01/01 00:25:15;;;;;;;1999.90;999.90;;;;;;;-0.50;100.00;101133.14;1767525;79;20997;-67
2021/01/01 00:27:42;;;;;;;1999.90;999.90;;;;;;;-0.46;100.00;101130.28;1767460;79;21146;-67
2021/01/01 00:30:11;;;;;;;1999.90;999.90;;;;;;;-0.45;100.00;101127.34;1768284;79;20937;-67
2021/01/01 00:32:42;;;;;;;1999.90;999.90;;;;;;;-0.46;100.00;101127.03;1765927;79;21948;-67
2021/01/01 00:35:11;;;;;;;1999.90;999.90;;;;;;;-0.44;100.00;101123.56;1766426;79;20977;-68
2021/01/01 00:37:40;;;;;;;1999.90;999.90;;;;;;;-0.41;100.00;101115.49;1769718;79;21000;-67
2021/01/01 00:40:08;;;;;;;1999.90;999.90;;;;;;;-0.41;100.00;101124.48;1766451;80;21590;-67
2021/01/01 00:42:37;;;;;;;1999.90;999.90;;;;;;;-0.42;100.00;101116.02;1766108;80;21092;-67
2021/01/01 00:45:06;;;;;;;1999.90;999.90;;;;;;;-0.41;100.00;101117.69;1789082;78;21198;-69
2021/01/01 00:47:35;;;;;;;1999.90;999.90;;;;;;;-0.40;100.00;101115.27;1788302;79;21024;-73
2021/01/01 00:50:04;;;;;;;1999.90;999.90;;;;;;;-0.39;100.00;101115.58;1775537;80;21119;-70
2021/01/01 00:52:32;;;;;;;1999.90;999.90;;;;;;;-0.40;100.00;101107.64;1757371;80;20993;-66
2021/01/01 00:55:01;;;;;;;1999.90;999.90;;;;;;;-0.40;100.00;101109.00;1757015;80;21131;-73
2021/01/01 00:57:29;;;;;;;1999.90;999.90;;;;;;;-0.40;100.00;101104.92;1786131;79;22368;-67
2021/01/01 00:59:57;;;;;;;1999.90;999.90;;;;;;;-0.40;100.00;101100.84;1788360;79;21115;-70
2021/01/01 01:02:25;;;;;;;1999.90;999.90;;;;;;;-0.40;100.00;101103.03;1783626;79;21092;-75
2021/01/01 01:04:53;;;;;;;1999.90;999.90;;;;;;;-0.40;100.00;101100.31;1785417;79;21369;-70
2021/01/01 01:07:21;;;;;;;1999.90;999.90;;;;;;;-0.38;100.00;101096.84;1783997;79;21157;-70
2021/01/01 01:09:49;;;;;;;1999.90;999.90;;;;;;;-0.36;100.00;101098.81;1784117;79;21733;-73
2021/01/01 01:12:18;;;;;;;1999.90;999.90;;;;;;;-0.34;100.00;101097.23;1786899;78;21121;-67
2021/01/01 01:14:46;;;;;;;1999.90;999.90;;;;;;;-0.33;100.00;101095.64;1795539;79;21115;-67
2021/01/01 01:17:14;;;;;;;1999.90;999.90;;;;;;;-0.30;100.00;101097.61;1757058;80;21121;-67
2021/01/01 01:19:42;;;;;;;1999.90;999.90;;;;;;;-0.29;100.00;101089.75;1760871;79;21166;-65
2021/01/01 01:22:10;;;;;;;1999.90;999.90;;;;;;;-0.29;100.00;101095.20;1786385;78;22264;-64
2021/01/01 01:24:38;;;;;;;1999.90;999.90;;;;;;;-0.28;100.00;101094.97;1784008;79;21650;-65
2021/01/01 01:27:06;;;;;;;1999.90;999.90;;;;;;;-0.27;100.00;101089.83;1785051;79;21695;-68
2021/01/01 01:29:34;;;;;;;1999.90;999.90;;;;;;;-0.26;100.00;101086.59;1783234;79;21000;-67
2021/01/01 01:32:02;;;;;;;1999.90;999.90;;;;;;;-0.26;100.00;101088.78;1787280;79;21160;-66
2021/01/01 01:34:30;;;;;;;1999.90;999.90;;;;;;;-0.24;100.00;101085.30;1770490;80;21665;-67
2021/01/01 01:36:58;;;;;;;1999.90;999.90;;;;;;;-0.24;100.00;101085.30;1756363;80;21020;-70
2021/01/01 01:39:26;;;;;;;1999.90;999.90;;;;;;;-0.22;100.00;101089.16;1760608;80;21688;-69
2021/01/01 01:41:54;;;;;;;1999.90;999.90;;;;;;;-0.21;100.00;101090.83;1759004;80;21172;-68
2021/01/01 01:44:22;;;;;;;1999.90;999.90;;;;;;;-0.21;100.00;101084.86;1761319;80;21177;-65
2021/01/01 01:46:50;;;;;;;1999.90;999.90;;;;;;;-0.21;100.00;101082.14;1760692;80;21376;-66
2021/01/01 01:49:19;;;;;;;1999.90;999.90;;;;;;;-0.19;100.00;101079.19;1731624;80;21535;-73
2021/01/01 01:51:47;;;;;;;1999.90;999.90;;;;;;;-0.19;100.00;101077.83;1760991;80;22025;-68
2021/01/01 01:54:16;;;;;;;1999.90;999.90;;;;;;;-0.18;100.00;101082.21;1784061;79;21135;-70
2021/01/01 01:56:44;;;;;;;1999.90;999.90;;;;;;;-0.16;100.00;101084.18;1791843;79;21138;-73
2021/01/01 01:59:15;;;;;;;1999.90;999.90;;;;;;;-0.15;100.00;101082.59;1747068;80;21219;-73
2021/01/01 02:01:43;;;;;;;1999.90;999.90;;;;;;;-0.13;100.00;101074.20;1760893;80;21228;-67
2021/01/01 02:04:11;;;;;;;1999.90;999.90;;;;;;;-0.12;100.00;101079.95;1789033;79;21536;-70
2021/01/01 02:06:41;;;;;;;1999.90;999.90;;;;;;;-0.11;100.00;101077.53;1757329;80;21665;-67
2021/01/01 02:09:12;;;;;;;1999.90;999.90;;;;;;;-0.10;100.00;101083.28;1767367;79;20989;-73
2021/01/01 02:11:41;;;;;;;1999.90;999.90;;;;;;;-0.09;100.00;101070.81;1771103;79;21335;-70
2021/01/01 02:14:10;;;;;;;1999.90;999.90;;;;;;;-0.08;100.00;101073.84;1752702;79;21012;-66
2021/01/01 02:16:38;;;;;;;1999.90;999.90;;;;;;;-0.07;100.00;101061.89;1748236;81;21527;-73
2021/01/01 02:19:06;;;;;;;1999.90;999.90;;;;;;;-0.08;100.00;101058.88;1749177;81;21668;-68
2021/01/01 02:21:34;;;;;;;1999.90;999.90;;;;;;;-0.07;100.00;101052.37;1742633;81;21581;-70
2021/01/01 02:24:02;;;;;;;1999.90;999.90;;;;;;;-0.06;100.00;101057.28;1742434;81;21449;-70
2021/01/01 02:26:29;;;;;;;1999.90;999.90;;;;;;;-0.07;100.00;101054.26;1749968;80;21688;-72
2021/01/01 02:29:02;;;;;;;1999.90;999.90;;;;;;;-0.07;100.00;101054.26;1748115;81;21119;-74
2021/01/01 02:31:33;;;;;;;1999.90;999.90;;;;;;;-0.07;100.00;101052.37;1752262;81;21099;-67
2021/01/01 02:34:01;;;;;;;1999.90;999.90;;;;;;;-0.06;100.00;101051.84;1750198;81;21032;-71
2021/01/01 02:36:30;;;;;;;1999.90;999.90;;;;;;;-0.05;100.00;101050.25;1742534;81;21416;-75
2021/01/01 02:39:00;;;;;;;1999.90;999.90;;;;;;;-0.05;100.00;101050.25;1741571;79;21104;-69
2021/01/01 02:41:28;;;;;;;1999.90;999.90;;;;;;;-0.04;100.00;101048.36;1753588;81;21146;-67
2021/01/01 02:43:56;;;;;;;1999.90;999.90;;;;;;;-0.05;100.00;101049.42;1745523;80;21139;-69
2021/01/01 02:46:25;;;;;;;1999.90;999.90;;;;;;;-0.06;100.00;101044.51;1754174;79;21015;-74
2021/01/01 02:48:53;;;;;;;1999.90;999.90;;;;;;;-0.06;100.00;101049.95;1745740;81;21211;-64
2021/01/01 02:51:21;;;;;;;1999.90;999.90;;;;;;;-0.04;100.00;101052.45;1740600;81;20985;-59
2021/01/01 02:53:49;;;;;;;1999.90;999.90;;;;;;;-0.03;100.00;101052.75;1736710;81;21111;-62
2021/01/01 02:56:17;;;;;;;1999.90;999.90;;;;;;;-0.03;100.00;101047.30;1801482;78;21084;-62
2021/01/01 02:58:45;;;;;;;1999.90;999.90;;;;;;;-0.03;100.00;101050.86;1794712;78;20977;-66
2021/01/01 03:01:13;;;;;;;1999.90;999.90;;;;;;;-0.01;100.00;101045.19;1744634;81;21391;-69
2021/01/01 03:03:41;;;;;;;1999.90;999.90;;;;;;;-0.02;100.00;101036.72;1720891;81;21142;-73
2021/01/01 03:06:09;;;;;;;1999.90;999.90;;;;;;;-0.02;100.00;101038.91;1743840;81;21178;-63
2021/01/01 03:08:37;;;;;;;1999.90;999.90;;;;;;;-0.01;100.00;101033.77;1755547;80;21111;-61
2021/01/01 03:11:05;;;;;;;1999.90;999.90;;;;;;;0.01;100.00;101028.66;1800117;78;21138;-64
2021/01/01 03:13:34;;;;;;;1999.90;999.90;;;;;;;-0.01;100.00;101032.41;1813863;78;22099;-63
2021/01/01 03:16:02;;;;;;;1999.90;999.90;;;;;;;0.00;100.00;101033.28;1774470;79;21501;-65
2021/01/01 03:18:31;;;;;;;1999.90;999.90;;;;;;;-0.01;100.00;101028.86;1752155;81;20988;-66
2021/01/01 03:20:59;;;;;;;1999.90;999.90;;;;;;;0.00;100.00;101027.84;1773058;79;21550;-65
2021/01/01 03:23:27;;;;;;;1999.90;999.90;;;;;;;-0.01;100.00;101020.17;1751665;81;21084;-66
2021/01/01 03:25:54;;;;;;;1999.90;999.90;;;;;;;-0.02;100.00;101019.03;1770687;79;22280;-61
2021/01/01 03:28:22;;;;;;;1999.90;999.90;;;;;;;-0.01;100.00;101023.42;1754043;81;21124;-59
2021/01/01 03:30:50;;;;;;;1999.90;999.90;;;;;;;-0.01;100.00;101035.14;1775004;79;21724;-67
2021/01/01 03:33:18;;;;;;;1999.90;999.90;;;;;;;-0.03;100.00;101034.53;1752849;81;21080;-62
2021/01/01 03:35:46;;;;;;;1999.90;999.90;;;;;;;-0.04;100.00;101030.67;1756757;81;21106;-61
2021/01/01 03:38:14;;;;;;;1999.90;999.90;;;;;;;-0.06;100.00;101041.79;1765519;79;21360;-60
2021/01/01 03:40:42;;;;;;;1999.90;999.90;;;;;;;-0.05;100.00;101031.20;1774904;79;21543;-61
2021/01/01 03:43:10;;;;;;;1999.90;999.90;;;;;;;-0.03;100.00;101036.42;1757986;81;21100;-69
2021/01/01 03:45:38;;;;;;;1999.90;999.90;;;;;;;-0.01;100.00;101037.02;1779682;79;20965;-66
2021/01/01 03:48:07;;;;;;;1999.90;999.90;;;;;;;0.00;100.00;101033.28;1759690;81;21408;-61
2021/01/01 03:50:35;;;;;;;1999.90;999.90;;;;;;;0.01;100.00;101033.58;1778593;79;21515;-61
2021/01/01 03:53:03;;;;;;;1999.90;999.90;;;;;;;0.03;100.00;101033.35;1748311;81;21226;-67
2021/01/01 03:55:31;;;;;;;1999.90;999.90;;;;;;;0.03;100.00;101031.46;1749773;80;21119;-68
2021/01/01 03:57:59;;;;;;;1999.90;999.90;;;;;;;0.03;100.00;101032.83;1761023;80;21140;-67
2021/01/01 04:00:26;;;;;;;1999.90;999.90;;;;;;;0.05;100.00;101031.23;1754211;81;21151;-67
2021/01/01 04:02:54;;;;;;;1999.90;999.90;;;;;;;0.06;100.00;101034.26;1775558;79;21388;-66
2021/01/01 04:05:22;;;;;;;1999.90;999.90;;;;;;;0.05;100.00;101044.31;1744579;81;21551;-62
2021/01/01 04:07:50;;;;;;;1999.90;999.90;;;;;;;0.07;100.00;101038.64;1776771;79;21610;-66
2021/01/01 04:10:18;;;;;;;1999.90;999.90;;;;;;;0.08;100.00;101037.05;1754638;81;20986;-61
2021/01/01 04:12:46;;;;;;;1999.90;999.90;;;;;;;0.10;100.00;101036.83;1775321;79;21158;-67
2021/01/01 04:15:14;;;;;;;1999.90;999.90;;;;;;;0.11;100.00;101037.13;1774628;79;21363;-61
2021/01/01 04:17:42;;;;;;;1999.90;999.90;;;;;;;0.10;100.00;101035.47;1762154;80;21550;-60
2021/01/01 04:20:11;;;;;;;1999.90;999.90;;;;;;;0.11;100.00;101048.02;1766376;79;20973;-66
2021/01/01 04:22:38;;;;;;;1999.90;999.90;;;;;;;0.11;100.00;101039.84;1764098;79;21116;-67
2021/01/01 04:25:07;;;;;;;1999.90;999.90;;;;;;;0.11;100.00;101045.30;1765632;79;21107;-61
2021/01/01 04:27:35;;;;;;;1999.90;999.90;;;;;;;0.12;100.00;101050.51;1754802;80;21370;-61
2021/01/01 04:30:04;;;;;;;1999.90;999.90;;;;;;;0.13;100.00;101041.81;1758544;80;20985;-62
2021/01/01 04:32:32;;;;;;;1999.90;999.90;;;;;;;0.14;100.00;101040.22;1788748;79;21614;-61
2021/01/01 04:35:00;;;;;;;1999.90;999.90;;;;;;;0.14;100.00;101037.50;1786434;79;21076;-61
2021/01/01 04:37:28;;;;;;;1999.90;999.90;;;;;;;0.15;100.00;101039.69;1788232;79;21115;-61
2021/01/01 04:39:56;;;;;;;1999.90;999.90;;;;;;;0.17;100.00;101049.83;1788985;79;21613;-66
2021/01/01 04:42:23;;;;;;;1999.90;999.90;;;;;;;0.16;100.00;101055.80;1786817;79;20985;-67
2021/01/01 04:44:51;;;;;;;1999.90;999.90;;;;;;;0.17;100.00;101058.82;1734115;80;21594;-66
2021/01/01 04:47:20;;;;;;;1999.90;999.90;;;;;;;0.17;100.00;101053.38;1740638;81;21143;-66
2021/01/01 04:49:50;;;;;;;1999.90;999.90;;;;;;;0.18;100.00;101054.21;1762428;79;21209;-67
2021/01/01 04:52:18;;;;;;;1999.90;999.90;;;;;;;0.20;100.00;101054.81;1765374;80;22089;-68
2021/01/01 04:54:46;;;;;;;1999.90;999.90;;;;;;;0.20;100.00;101052.92;1765641;80;21221;-67
2021/01/01 04:57:14;;;;;;;1999.90;999.90;;;;;;;0.20;100.00;101054.28;1765760;80;21001;-67
2021/01/01 04:59:41;;;;;;;1999.90;999.90;;;;;;;0.21;100.00;101051.03;1774815;80;21081;-62
2021/01/01 05:02:09;;;;;;;1999.90;999.90;;;;;;;0.21;100.00;101054.59;1768502;80;21140;-62
2021/01/01 05:04:37;;;;;;;1999.90;999.90;;;;;;;0.20;100.00;101051.56;1761603;80;21384;-66
2021/01/01 05:07:05;;;;;;;1999.90;999.90;;;;;;;0.20;100.00;101050.20;1760647;80;21135;-67
2021/01/01 05:09:33;;;;;;;1999.90;999.90;;;;;;;0.19;100.00;101053.15;1760151;80;21108;-67
2021/01/01 05:12:08;;;;;;;1999.90;999.90;;;;;;;0.19;100.00;101055.34;1793452;79;21119;-62
2021/01/01 05:14:36;;;;;;;;;;;;;;;0.18;100.00;101052.32;1791970;78;21148;-62
2021/01/01 05:17:04;;;;;;;1999.90;999.90;;;;;;;0.18;100.00;101048.23;1792393;78;21887;-67
2021/01/01 05:19:43;;;;;;;1999.90;999.90;;;;;;;0.17;100.00;101043.84;1792986;78;21554;-61
2021/01/01 05:22:12;;;;;;;1999.90;999.90;;;;;;;0.16;100.00;101041.36;1771335;80;20989;-61
2021/01/01 05:24:43;;;;;;;1999.90;999.90;;;;;;;0.17;100.00;101045.21;1775358;80;21115;-61
2021/01/01 05:27:18;;;;;;;1999.90;999.90;;;;;;;0.19;100.00;101044.45;1769187;80;21151;-68
2021/01/01 05:29:52;;;;;;;1999.90;999.90;;;;;;;0.19;100.00;101039.54;1768085;79;21374;-67
2021/01/01 05:32:25;;;;;;;1999.90;999.90;;;;;;;0.18;100.00;101045.52;1792099;78;21124;-62
2021/01/01 05:34:53;;;;;;;1999.90;999.90;;;;;;;0.18;100.00;101047.41;1771464;80;21170;-61
2021/01/01 05:37:34;;;;;;;1999.90;999.90;;;;;;;0.19;100.00;101053.15;1767556;79;20968;-61
2021/01/01 05:40:08;;;;;;;1999.90;999.90;;;;;;;0.20;100.00;101062.45;1775511;80;21083;-67
2021/01/01 05:42:36;;;;;;;1999.90;999.90;;;;;;;0.22;100.00;101059.50;1770314;79;22283;-61
2021/01/01 05:45:17;;;;;;;1999.90;999.90;;;;;;;0.22;100.00;101057.61;1775181;80;21582;-68
2021/01/01 05:48:06;;;;;;;1999.90;999.90;;;;;;;0.23;100.00;101051.63;1766536;79;21098;-67
2021/01/01 05:50:35;;;;;;;1999.90;999.90;;;;;;;0.23;100.00;101050.27;1767221;79;21098;-67
2021/01/01 05:53:12;;;;;;;1999.90;999.90;;;;;;;0.23;100.00;101048.38;1776509;79;21143;-67
2021/01/01 05:55:40;;;;;;;1999.90;999.90;;;;;;;0.23;100.00;101049.74;1772262;79;21388;-68
2021/01/01 05:58:24;;;;;;;1999.90;999.90;;;;;;;0.23;100.00;101049.74;1788817;78;21107;-61
2021/01/01 06:00:56;;;;;;;1999.90;999.90;;;;;;;0.22;100.00;101038.55;1790378;78;21123;-67
2021/01/01 06:03:32;;;;;;;1999.90;999.90;;;;;;;0.21;100.00;101041.50;1788349;78;21640;-68
2021/01/01 06:06:04;;;;;;;1999.90;999.90;;;;;;;0.21;100.00;101038.25;1793343;78;21108;-61
2021/01/01 06:08:31;;;;;;;1999.90;999.90;;;;;;;0.21;100.00;101034.17;1766237;80;21554;-62
2021/01/01 06:11:04;;;;;;;1999.90;999.90;;;;;;;0.22;100.00;101033.11;1791630;78;21100;-68
2021/01/01 06:13:34;;;;;;;1999.90;999.90;;;;;;;0.23;100.00;101033.41;1789668;78;21020;-68
2021/01/01 06:16:04;;;;;;;1999.90;999.90;;;;;;;0.24;100.00;101035.07;1793446;78;21067;-68
2021/01/01 06:18:33;;;;;;;1999.90;999.90;;;;;;;0.25;100.00;101032.65;1794568;78;21226;-68
2021/01/01 06:21:05;;;;;;;1999.90;999.90;;;;;;;0.25;100.00;101021.77;1800310;78;21383;-69
2021/01/01 06:23:40;;;;;;;1999.90;999.90;;;;;;;0.29;100.00;101020.23;1731618;82;21123;-68
2021/01/01 06:26:10;;;;;;;1999.90;999.90;;;;;;;0.31;100.00;101020.02;1750919;81;23983;-62
2021/01/01 06:28:43;;;;;;;1999.90;999.90;;;;;;;0.31;100.00;101022.73;1715793;82;21095;-67
2021/01/01 06:31:11;;;;;;;1999.90;999.90;;;;;;;0.31;100.00;101016.76;1750265;81;21095;-61
2021/01/01 06:33:44;;;;;;;1999.90;999.90;;;;;;;0.31;100.00;101014.03;1746549;81;22086;-67
2021/01/01 06:36:36;;;;;;;1999.90;999.90;;;;;;;0.38;100.00;101012.59;1856332;76;22690;-60
2021/01/01 06:39:05;;;;;;;1999.90;999.90;;;;;;;0.32;100.00;101016.23;1847972;75;20952;-60
2021/01/01 06:41:45;;;;;;;1999.90;999.90;;;;;;;0.33;100.00;101019.25;1845923;77;21344;-65
2021/01/01 06:44:35;;;;;;;1999.90;999.90;;;;;;;0.33;100.00;101020.61;1853497;77;21606;-62
2021/01/01 06:47:13;;;;;;;1999.90;999.90;;;;;;;0.41;100.00;101028.99;1763983;77;27958;-61
2021/01/01 06:49:40;;;;;;;1999.90;999.90;;;;;;;0.44;100.00;101028.53;1750837;80;20968;-67
2021/01/01 06:52:18;;;;;;;1999.90;999.90;;;;;;;0.46;100.00;101025.88;1739700;80;21363;-63
2021/01/01 06:55:00;;;;;;;1999.90;999.90;;;;;;;0.47;100.00;101023.98;1734665;80;21124;-67
2021/01/01 06:57:29;;;;;;;1999.90;999.90;;;;;;;0.47;100.00;101028.91;1752031;80;21127;-67
2021/01/01 06:59:58;;;;;;;1999.90;999.90;;;;;;;0.47;100.00;101010.37;1751743;80;21119;-62
2021/01/01 07:02:27;;;;;;;1999.90;999.90;;;;;;;0.46;100.00;101008.71;1720272;80;21124;-68
2021/01/01 07:04:55;;;;;;;1999.90;999.90;;;;;;;0.47;100.00;101002.20;1729099;80;21615;-62
2021/01/01 07:07:40;;;;;;;1999.90;999.90;;;;;;;0.47;100.00;101012.56;1744222;80;20992;-67
2021/01/01 07:10:15;;;;;;;;;;;;;;;0.47;100.00;101015.28;1737750;80;21785;-63
2021/01/01 07:13:11;;;;;;;1999.90;999.90;;;;;;;0.54;100.00;101009.75;1881012;75;22414;-63
2021/01/01 07:15:39;;;;;;;1999.90;999.90;;;;;;;0.50;100.00;101016.19;1858211;77;21143;-68
2021/01/01 07:18:07;;;;;;;1999.90;999.90;;;;;;;0.51;100.00;101013.77;1856875;77;21305;-62
2021/01/01 07:20:41;;;;;;;1999.90;999.90;;;;;;;0.54;100.00;101024.72;1857481;77;20972;-62
2021/01/01 07:23:08;;;;;;;1999.90;999.90;;;;;;;0.54;100.00;101019.28;1787359;80;20921;-67
2021/01/01 07:25:37;;;;;;;1999.90;999.90;;;;;;;0.56;100.00;101010.34;1794072;78;21102;-68
2021/01/01 07:28:09;;;;;;;1999.90;999.90;;;;;;;0.57;100.00;101014.20;1810125;78;20976;-67
2021/01/01 07:30:37;;;;;;;1999.90;999.90;;;;;;;0.58;100.00;101005.50;1785221;78;21378;-62
2021/01/01 07:33:05;;;;;;;1999.90;999.90;;;;;;;0.60;100.00;101014.27;1789805;80;21025;-67
2021/01/01 07:35:33;;;;;;;1999.90;999.90;;;;;;;0.61;100.00;101030.37;1803637;78;20984;-62
2021/01/01 07:38:03;;;;;;;1999.90;999.90;;;;;;;0.61;100.00;101029.02;1789520;80;21138;-66
2021/01/01 07:40:31;;;;;;;1999.90;999.90;;;;;;;0.62;100.00;101020.31;1805426;78;21111;-67
2021/01/01 07:42:59;;;;;;;1999.90;999.90;;;;;;;0.64;100.00;101022.27;1821198;78;22253;-67
2021/01/01 07:45:28;;;;;;;1999.90;999.90;;;;;;;0.65;100.00;101023.94;1787899;79;21005;-66
2021/01/01 07:47:56;;;;;;;1999.90;999.90;;;;;;;0.67;100.00;101024.53;1812812;78;21546;-62
2021/01/01 07:50:24;;;;;;;1999.90;999.90;;;;;;;0.68;100.00;101029.45;1814085;78;21158;-68
2021/01/01 07:53:00;;;;;;;1999.90;999.90;;;;;;;0.69;100.00;101026.50;1787684;79;21164;-63
2021/01/01 07:55:28;;;;;;;1999.90;999.90;;;;;;;0.72;100.00;101020.58;1805557;78;22619;-67
2021/01/01 07:58:00;;;;;;;1999.90;999.90;;;;;;;0.73;100.00;101014.07;1816070;78;20985;-62
2021/01/01 08:00:29;;;;;;;1999.90;999.90;;;;;;;0.74;100.00;101014.91;1788881;80;21016;-63
2021/01/01 08:02:59;;;;;;;1999.90;999.90;;;;;;;0.76;100.00;101012.24;1768883;80;21127;-67
2021/01/01 08:05:27;;;;;;;1999.90;999.90;;;;;;;0.79;100.00;101015.03;1784790;79;21135;-68
2021/01/01 08:07:57;;;;;;;1999.90;999.90;;;;;;;0.79;100.00;101006.33;1799830;79;21384;-68
2021/01/01 08:10:34;;;;;;;1999.90;999.90;;;;;;;0.82;100.00;101010.48;1768511;79;21430;-67
2021/01/01 08:13:02;;;;;;;1999.90;999.90;;;;;;;0.84;100.00;101005.63;1796795;79;20973;-62
2021/01/01 08:15:30;;;;;;;1999.90;999.90;;;;;;;0.86;100.00;101016.59;1781880;79;21091;-67
2021/01/01 08:18:18;;;;;;;1999.90;999.90;;;;;;;0.87;100.00;101014.70;1785841;80;21075;-66
2021/01/01 08:20:47;;;;;;;1999.90;999.90;;;;;;;0.89;100.00;101006.59;1812761;78;21610;-67
2021/01/01 08:23:17;;;;;;;1999.90;999.90;;;;;;;0.91;100.00;101007.72;1808604;78;21577;-62
2021/01/01 08:25:46;;;;;;;1999.90;999.90;;;;;;;0.92;100.00;101012.11;1788833;79;21567;-67
2021/01/01 08:28:19;;;;;;;1999.90;999.90;;;;;;;0.96;100.00;101019.58;1792308;78;21099;-63
2021/01/01 08:31:00;;;;;;;1999.90;999.90;;;;;;;1.01;100.00;101013.95;1808448;78;21107;-67
2021/01/01 08:33:31;;;;;;;1999.90;999.90;;;;;;;1.02;100.00;101006.91;1784459;80;21370;-67
2021/01/01 08:36:01;;;;;;;1999.90;999.90;;;;;;;1.03;100.00;101018.64;1785686;79;21014;-67
2021/01/01 08:38:29;;;;;;;1999.90;999.90;;;;;;;1.05;100.00;101013.25;1782392;79;21586;-67
2021/01/01 08:40:58;;;;;;;1999.90;999.90;;;;;;;1.06;100.00;101016.28;1783719;79;20977;-68
2021/01/01 08:43:27;;;;;;;1999.90;999.90;;;;;;;1.11;100.00;101015.57;1786790;80;20920;-64
2021/01/01 08:45:55;;;;;;;1999.90;999.90;;;;;;;1.11;100.00;101008.76;1795902;79;22071;-67
2021/01/01 08:48:28;;;;;;;1999.90;999.90;;;;;;;1.10;100.00;101005.73;1782858;80;21106;-62
2021/01/01 08:50:56;;;;;;;1999.90;999.90;;;;;;;1.12;100.00;101012.61;1802102;78;20980;-62
2021/01/01 08:53:24;;;;;;;1999.90;999.90;;;;;;;1.12;100.00;101007.69;1787474;79;22330;-67
2021/01/01 08:55:58;;;;;;;1999.90;999.90;;;;;;;1.13;100.00;101007.98;1790771;79;21709;-62
2021/01/01 08:58:26;;;;;;;1999.90;999.90;;;;;;;1.13;100.00;101002.54;1785866;79;21218;-62
2021/01/01 09:00:55;;;;;;;1999.90;999.90;;;;;;;1.12;100.00;100993.53;1792679;79;21534;-62
2021/01/01 09:03:23;;;;;;;1999.90;999.90;;;;;;;1.12;100.00;100990.80;1763074;79;21554;-64
2021/01/01 09:05:54;;;;;;;1999.90;999.90;;;;;;;1.13;100.00;100990.27;1779877;79;20992;-61
2021/01/01 09:08:23;;;;;;;1999.90;999.90;;;;;;;1.14;100.00;100983.75;1793878;79;21530;-61
2021/01/01 09:10:54;;;;;;;1999.90;999.90;;;;;;;1.13;100.00;100976.64;1775830;80;21135;-66
2021/01/01 09:13:25;;;;;;;1999.90;999.90;;;;;;;1.14;100.00;100971.48;1804501;78;21018;-62
2021/01/01 09:16:04;;;;;;;1999.90;999.90;;;;;;;1.14;100.00;100977.77;1815357;78;21539;-67
2021/01/01 09:18:32;;;;;;;1999.90;999.90;;;;;;;1.16;100.00;100974.80;1802140;79;20969;-62
2021/01/01 09:21:15;;;;;;;1999.90;999.90;;;;;;;1.17;100.00;100975.09;1781623;78;21512;-66
2021/01/01 09:23:52;;;;;;;1999.90;999.90;;;;;;;1.18;100.00;100972.14;1782281;79;21196;-62
2021/01/01 09:26:22;;;;;;;1999.90;999.90;;;;;;;1.19;100.00;100971.07;1815370;78;21123;-65
2021/01/01 09:29:02;;;;;;;1999.90;999.90;;;;;;;1.23;100.00;100968.70;1809161;78;21088;-65
2021/01/01 09:31:30;;;;;;;1999.90;999.90;;;;;;;1.24;100.00;100981.27;1785127;80;21083;-66
2021/01/01 09:34:06;;;;;;;1999.90;999.90;;;;;;;1.28;100.00;101003.73;1783925;79;21518;-65
2021/01/01 09:36:37;;;;;;;1999.90;999.90;;;;;;;1.29;100.00;100997.21;1778448;78;21381;-64
2021/01/01 09:39:06;;;;;;;1999.90;999.90;;;;;;;1.34;100.00;100975.22;1813040;78;20988;-65
2021/01/01 09:41:37;;;;;;;1999.90;999.90;;;;;;;1.35;100.00;100956.42;1780327;80;21157;-64
2021/01/01 09:44:13;;;;;;;1999.90;999.90;;;;;;;1.44;100.00;100957.19;1820522;76;23347;-65
2021/01/01 09:46:45;;;;;;;1999.90;999.90;;;;;;;1.45;100.00;100978.48;1810707;77;20954;-64
2021/01/01 09:49:13;;;;;;;1999.90;999.90;;;;;;;1.51;100.00;100964.72;1810785;79;21158;-65
2021/01/01 09:51:41;;;;;;;1999.90;999.90;;;;;;;1.54;100.00;100963.41;1808869;77;20957;-61
2021/01/01 09:54:09;;;;;;;1999.90;999.90;;;;;;;1.55;100.00;100960.44;1802446;78;21004;-61
2021/01/01 09:56:37;;;;;;;1999.90;999.90;;;;;;;1.55;100.00;100958.25;1803211;77;21004;-63
2021/01/01 09:59:05;;;;;;;1999.90;999.90;;;;;;;1.57;100.00;100954.20;1802234;79;20980;-61
2021/01/01 10:01:33;;;;;;;1999.90;999.90;;;;;;;1.58;100.00;100960.50;1800945;77;21646;-66
2021/01/01 10:04:01;;;;;;;1999.90;999.90;;;;;;;1.59;100.00;100949.88;1798504;78;21499;-62
2021/01/01 10:06:29;;;;;;;1999.90;999.90;;;;;;;1.56;100.00;100938.08;1799222;79;21092;-61
2021/01/01 10:08:58;;;;;;;1999.90;999.90;;;;;;;1.55;100.00;100935.06;1804569;78;20993;-64
2021/01/01 10:11:26;;;;;;;1999.90;999.90;;;;;;;1.57;100.00;100939.20;1805947;79;21108;-66
2021/01/01 10:13:54;;;;;;;1999.90;999.90;;;;;;;1.60;100.00;100940.62;1808530;78;21879;-65
2021/01/01 10:16:22;;;;;;;1999.90;999.90;;;;;;;1.62;100.00;100939.84;1806272;79;21503;-63
2021/01/01 10:18:49;;;;;;;1999.90;999.90;;;;;;;1.65;100.00;100933.08;1806155;77;21052;-65
2021/01/01 10:21:21;;;;;;;1999.90;999.90;;;;;;;1.65;100.00;100934.45;1803773;79;20953;-62
2021/01/01 10:23:48;;;;;;;1999.90;999.90;;;;;;;1.66;100.00;100930.11;1805394;79;21080;-64
2021/01/01 10:26:16;;;;;;;1999.90;999.90;;;;;;;1.69;100.00;100924.71;1809157;77;22192;-61
2021/01/01 10:28:44;;;;;;;1999.90;999.90;;;;;;;1.69;100.00;100926.91;1808313;79;21546;-70
2021/01/01 10:31:12;;;;;;;1999.90;999.90;;;;;;;1.70;100.00;100927.73;1805418;79;20956;-67
2021/01/01 10:33:42;;;;;;;1999.90;999.90;;;;;;;1.71;100.00;100915.21;1808332;77;21115;-63
2021/01/01 10:36:12;;;;;;;1999.90;999.90;;;;;;;1.74;99.98;100907.08;1808035;77;21506;-63
2021/01/01 10:38:41;;;;;;;1999.90;999.90;;;;;;;1.77;99.89;100901.14;1807802;77;21247;-62
2021/01/01 10:41:13;;;;;;;1999.90;999.90;;;;;;;1.78;99.70;100889.98;1806506;78;20953;-63
2021/01/01 10:43:42;;;;;;;1999.90;999.90;;;;;;;1.79;99.52;100887.55;1807138;77;21016;-67
2021/01/01 10:46:14;;;;;;;1999.90;999.90;;;;;;;1.81;99.56;100892.76;1809763;78;21617;-68
2021/01/01 10:48:42;;;;;;;1999.90;999.90;;;;;;;1.82;99.38;100891.69;1813541;77;20953;-67
2021/01/01 10:51:09;;;;;;;1999.90;999.90;;;;;;;1.81;99.38;100900.41;1813057;78;21157;-69
2021/01/01 10:53:38;;;;;;;1999.90;999.90;;;;;;;1.84;99.44;100908.65;1810794;78;21103;-68
2021/01/01 10:56:06;;;;;;;1999.90;999.90;;;;;;;1.86;99.41;100910.59;1816535;77;21087;-68